Time;durP1;ratioP1;P1;durP2;ratioP2;P2;SDS_P1;SDS_P2;PMS_P1;PMS_P2;Temp;Humidity;BMP_temperature;BMP_pressure;BME280_temperature;BME280_humidity;BME280_pressure;Samples;Min_cycle;Max_cycle;Signal;HPM_P1;HPM_P2
2022/09/28 00:01:09;;;;;;;1.30;0.90;;;;;;;10.15;100.00;95233.13;4909748;29;20233;-57
2022/09/28 00:03:36;;;;;;;2.53;1.10;;;;;;;10.20;100.00;95229.97;4910437;29;20848;-57
2022/09/28 00:06:04;;;;;;;2.60;1.10;;;;;;;10.17;100.00;95206.53;4909481;29;20314;-57
2022/09/28 00:08:31;;;;;;;1.10;0.70;;;;;;;10.18;100.00;95194.97;4911035;29;20295;-57
2022/09/28 00:10:58;;;;;;;2.60;1.10;;;;;;;10.25;100.00;95185.34;4929947;29;20200;-56
2022/09/28 00:13:25;;;;;;;2.43;1.10;;;;;;;10.37;100.00;95190.06;4930807;29;20243;-58
2022/09/28 00:16:03;;;;;;;2.53;1.03;;;;;;;10.38;100.00;95185.59;4928952;29;20244;-57
2022/09/28 00:18:31;;;;;;;3.50;1.20;;;;;;;10.36;100.00;95182.28;4914366;29;20705;-57
2022/09/28 00:21:05;;;;;;;3.03;0.97;;;;;;;10.40;100.00;95173.84;4918120;29;20223;-56
2022/09/28 00:23:32;;;;;;;1.77;0.80;;;;;;;10.38;100.00;95164.44;4914925;29;20200;-57
2022/09/28 00:26:03;;;;;;;1.83;0.67;;;;;;;10.34;100.00;95157.88;4911643;29;20341;-56
2022/09/28 00:28:31;;;;;;;2.13;1.13;;;;;;;10.52;100.00;95155.75;4910752;29;20219;-57
2022/09/28 00:30:57;;;;;;;1.67;0.80;;;;;;;10.42;100.00;95157.78;4911257;29;20208;-57
2022/09/28 00:33:24;;;;;;;3.20;0.70;;;;;;;10.42;100.00;95158.59;4910916;29;20263;-56
2022/09/28 00:36:01;;;;;;;4.17;1.17;;;;;;;10.40;100.00;95150.06;4913801;29;20208;-56
2022/09/28 00:38:29;;;;;;;1.80;0.90;;;;;;;10.44;100.00;95142.59;4914357;29;20208;-56
2022/09/28 00:40:55;;;;;;;1.47;1.17;;;;;;;10.46;100.00;95140.56;4911558;29;20211;-57
2022/09/28 00:43:23;;;;;;;0.87;0.53;;;;;;;10.53;99.79;95138.88;4915337;29;20227;-57
2022/09/28 00:45:56;;;;;;;1.47;0.77;;;;;;;10.71;96.73;95139.34;4919733;29;20276;-57
2022/09/28 00:48:23;;;;;;;2.23;0.77;;;;;;;10.78;95.93;95126.22;4918041;29;20223;-56
2022/09/28 00:50:50;;;;;;;1.03;0.70;;;;;;;10.75;96.84;95124.78;4918923;29;20247;-58
2022/09/28 00:53:21;;;;;;;1.00;0.60;;;;;;;10.89;93.45;95113.38;4913479;29;20260;-56
2022/09/28 00:55:50;;;;;;;1.77;0.43;;;;;;;10.93;94.97;95133.19;4913763;29;20803;-58
2022/09/28 00:58:19;;;;;;;1.50;0.60;;;;;;;11.13;90.80;95124.69;4909964;29;20200;-57
2022/09/28 01:00:46;;;;;;;1.43;0.50;;;;;;;11.06;91.77;95116.66;4910884;29;20291;-57
2022/09/28 01:03:13;;;;;;;2.70;0.70;;;;;;;11.01;91.61;95108.47;4910346;29;20222;-57
2022/09/28 01:05:40;;;;;;;1.37;0.70;;;;;;;11.03;92.49;95113.56;4909878;29;20521;-57
2022/09/28 01:08:07;;;;;;;1.87;0.70;;;;;;;10.98;95.64;95109.63;4911551;29;20286;-56
2022/09/28 01:10:35;;;;;;;1.10;0.60;;;;;;;11.12;89.04;95105.38;4907853;29;20215;-56
2022/09/28 01:13:02;;;;;;;1.33;0.60;;;;;;;11.09;90.74;95111.00;4907634;29;20259;-56
2022/09/28 01:15:29;;;;;;;1.00;0.60;;;;;;;11.08;92.01;95098.78;4907411;29;20214;-56
2022/09/28 01:18:06;;;;;;;1.60;0.80;;;;;;;11.07;94.07;95091.03;4907640;29;20216;-56
2022/09/28 01:20:46;;;;;;;1.40;0.70;;;;;;;11.02;95.27;95088.13;4907546;29;20228;-56
2022/09/28 01:23:39;;;;;;;0.97;0.80;;;;;;;11.01;94.39;95091.78;4907433;29;20291;-55
2022/09/28 01:26:33;;;;;;;2.10;0.50;;;;;;;11.11;90.65;95066.69;4907611;29;20240;-56
2022/09/28 01:29:04;;;;;;;1.00;0.60;;;;;;;11.11;91.56;95076.44;4907729;29;20294;-56
2022/09/28 01:31:32;;;;;;;1.70;0.60;;;;;;;11.12;92.78;95067.50;4907073;29;20219;-56
2022/09/28 01:34:03;;;;;;;1.20;0.60;;;;;;;11.08;94.61;95075.00;4907405;29;20564;-57
2022/09/28 01:36:33;;;;;;;2.10;0.50;;;;;;;11.05;95.76;95054.19;4907837;29;20201;-56
2022/09/28 01:39:02;;;;;;;0.50;0.50;;;;;;;11.06;92.94;95052.34;4907766;29;20209;-57
2022/09/28 01:41:32;;;;;;;0.57;0.47;;;;;;;11.06;94.57;95052.34;4907127;29;20214;-56
2022/09/28 01:44:01;;;;;;;2.13;0.70;;;;;;;11.04;92.29;95055.19;4906532;29;20642;-56
2022/09/28 01:46:32;;;;;;;1.17;0.70;;;;;;;11.01;94.80;95057.41;4906502;29;20267;-56
2022/09/28 01:49:02;;;;;;;0.60;0.60;;;;;;;10.96;96.20;95064.06;4907456;29;20671;-57
2022/09/28 01:51:32;;;;;;;0.97;0.63;;;;;;;10.95;100.00;95057.09;4907374;29;20276;-56
2022/09/28 01:54:02;;;;;;;0.77;0.53;;;;;;;10.82;99.63;95049.00;4906976;29;20554;-57
2022/09/28 01:56:36;;;;;;;0.53;0.53;;;;;;;10.86;100.00;95044.19;4906962;29;20292;-57
2022/09/28 01:59:07;;;;;;;0.93;0.70;;;;;;;10.83;100.00;95036.63;4907131;29;20307;-57
2022/09/28 02:01:37;;;;;;;2.00;0.70;;;;;;;10.81;100.00;95031.50;4906338;29;20290;-57
2022/09/28 02:04:08;;;;;;;2.13;0.80;;;;;;;10.75;100.00;95024.31;4907260;29;20231;-57
2022/09/28 02:06:39;;;;;;;0.80;0.60;;;;;;;10.71;100.00;95025.69;4906900;29;20232;-57
2022/09/28 02:09:10;;;;;;;1.03;0.63;;;;;;;10.65;100.00;95020.31;4907041;29;20207;-57
2022/09/28 02:11:41;;;;;;;1.77;0.60;;;;;;;10.62;100.00;95013.56;4906879;29;20319;-57
2022/09/28 02:14:09;;;;;;;3.10;1.13;;;;;;;10.53;100.00;95008.53;4906573;29;20620;-57
2022/09/28 02:16:40;;;;;;;1.00;0.80;;;;;;;10.54;100.00;94989.88;4906753;29;20299;-56
2022/09/28 02:19:08;;;;;;;1.23;0.50;;;;;;;10.48;100.00;95001.19;4906655;29;20247;-57
2022/09/28 02:21:40;;;;;;;0.60;0.60;;;;;;;10.48;100.00;94996.72;4906358;29;20296;-56
2022/09/28 02:24:10;;;;;;;0.90;0.63;;;;;;;10.58;100.00;94999.06;4907054;29;20295;-56
2022/09/28 02:26:40;;;;;;;1.57;0.77;;;;;;;10.45;100.00;94990.97;4906138;29;20213;-57
2022/09/28 02:29:07;;;;;;;1.43;0.70;;;;;;;10.39;100.00;94979.28;4906515;29;20215;-55
2022/09/28 02:31:33;;;;;;;1.03;0.70;;;;;;;10.41;100.00;94979.94;4906732;29;20204;-57
2022/09/28 02:34:00;;;;;;;1.43;0.60;;;;;;;10.38;100.00;94990.84;4906516;29;20231;-55
2022/09/28 02:36:27;;;;;;;2.60;0.90;;;;;;;10.33;100.00;94980.03;4914415;29;20220;-55
2022/09/28 02:38:54;;;;;;;0.83;0.83;;;;;;;10.36;100.00;94977.03;4924322;29;20212;-57
2022/09/28 02:41:27;;;;;;;1.60;0.87;;;;;;;10.30;100.00;94976.94;4928137;29;20212;-57
2022/09/28 02:44:03;;;;;;;1.30;1.00;;;;;;;10.26;100.00;94960.63;4914658;29;20650;-58
2022/09/28 02:46:32;;;;;;;1.50;0.70;;;;;;;10.29;100.00;94980.56;4906318;29;20287;-56
2022/09/28 02:49:09;;;;;;;0.80;0.80;;;;;;;10.28;100.00;94969.19;4906701;29;20287;-57
2022/09/28 02:51:41;;;;;;;1.23;0.67;;;;;;;10.28;100.00;94979.75;4906295;29;20204;-57
2022/09/28 02:54:23;;;;;;;1.03;0.63;;;;;;;10.26;100.00;94968.56;4907146;29;20231;-56
2022/09/28 02:56:58;;;;;;;0.93;0.70;;;;;;;10.19;100.00;94958.88;4906504;29;20240;-56
2022/09/28 02:59:38;;;;;;;0.87;0.60;;;;;;;10.17;100.00;94960.88;4906304;29;20295;-57
2022/09/28 03:02:11;;;;;;;0.77;0.67;;;;;;;10.19;100.00;94958.88;4906360;29;20291;-56
2022/09/28 03:04:43;;;;;;;1.30;0.77;;;;;;;10.19;100.00;94950.97;4906239;29;20193;-57
2022/09/28 03:07:16;;;;;;;1.50;0.67;;;;;;;10.20;100.00;94950.78;4905678;29;20307;-57
2022/09/28 03:09:48;;;;;;;0.87;0.73;;;;;;;10.18;100.00;94952.78;4905920;29;20518;-57
2022/09/28 03:12:16;;;;;;;1.67;0.87;;;;;;;10.18;100.00;94942.22;4906446;29;20700;-57
2022/09/28 03:14:45;;;;;;;2.53;1.00;;;;;;;10.12;100.00;94940.28;4905522;29;20228;-58
2022/09/28 03:17:11;;;;;;;0.60;0.60;;;;;;;10.04;100.00;94932.44;4906326;29;20204;-57
2022/09/28 03:19:38;;;;;;;2.53;0.93;;;;;;;10.08;100.00;94917.88;4905736;29;20303;-57
2022/09/28 03:22:05;;;;;;;1.73;0.97;;;;;;;10.13;100.00;94919.97;4905655;29;20287;-57
2022/09/28 03:24:31;;;;;;;1.60;1.30;;;;;;;10.11;100.00;94914.88;4906347;29;20307;-57
2022/09/28 03:26:58;;;;;;;1.33;0.80;;;;;;;10.05;100.00;94926.16;4905861;29;20242;-57
2022/09/28 03:29:25;;;;;;;1.10;1.00;;;;;;;10.08;100.00;94930.25;4906353;29;20316;-57
2022/09/28 03:31:53;;;;;;;4.10;1.00;;;;;;;10.06;100.00;94929.63;4906049;29;20208;-56
2022/09/28 03:34:20;;;;;;;0.60;0.60;;;;;;;10.07;100.00;94923.31;4905497;29;20236;-57
2022/09/28 03:36:46;;;;;;;1.97;0.70;;;;;;;10.06;100.00;94914.56;4905527;29;20294;-57
2022/09/28 03:39:13;;;;;;;0.93;0.80;;;;;;;10.09;100.00;94921.34;4905899;29;20291;-57
2022/09/28 03:41:40;;;;;;;1.77;0.80;;;;;;;10.07;100.00;94933.88;4905705;29;20267;-56
2022/09/28 03:44:06;;;;;;;2.00;1.20;;;;;;;10.02;100.00;94926.53;4905486;29;20204;-57
2022/09/28 03:46:33;;;;;;;1.93;0.70;;;;;;;10.04;100.00;94934.25;4905730;29;20919;-57
2022/09/28 03:49:01;;;;;;;1.60;0.80;;;;;;;10.04;100.00;94928.97;4908090;29;20299;-56
2022/09/28 03:51:28;;;;;;;1.07;0.80;;;;;;;10.07;100.00;94923.31;4907524;29;20280;-57
2022/09/28 03:53:54;;;;;;;1.57;0.70;;;;;;;10.10;100.00;94920.31;4906865;29;20236;-57
2022/09/28 03:56:21;;;;;;;2.50;1.00;;;;;;;10.10;100.00;94920.31;4906323;29;20295;-57
2022/09/28 03:58:47;;;;;;;3.57;1.00;;;;;;;10.09;100.00;94905.50;4905900;29;20239;-58
2022/09/28 04:01:15;;;;;;;1.23;0.80;;;;;;;10.10;100.00;94909.75;4905104;29;20614;-56
2022/09/28 04:03:42;;;;;;;0.97;0.70;;;;;;;10.10;100.00;94907.09;4905823;29;20246;-57
2022/09/28 04:06:11;;;;;;;1.10;0.70;;;;;;;10.08;100.00;94904.66;4905649;29;20216;-57
2022/09/28 04:08:37;;;;;;;1.53;1.00;;;;;;;10.08;100.00;94899.38;4905466;29;20307;-57
2022/09/28 04:11:05;;;;;;;2.47;1.03;;;;;;;10.08;100.00;94898.56;4906479;29;20244;-57
2022/09/28 04:13:32;;;;;;;1.77;0.90;;;;;;;10.08;100.00;94898.56;4909393;29;21403;-57
2022/09/28 04:16:00;;;;;;;1.77;1.00;;;;;;;10.08;100.00;94909.13;4909025;29;20207;-57
2022/09/28 04:18:27;;;;;;;1.60;1.30;;;;;;;10.10;100.00;94907.09;4908117;29;20205;-58
2022/09/28 04:21:05;;;;;;;1.50;1.40;;;;;;;10.11;100.00;94903.47;4908782;29;20239;-57
2022/09/28 04:23:34;;;;;;;0.90;0.73;;;;;;;10.21;100.00;94902.22;4909003;29;20203;-57
2022/09/28 04:26:01;;;;;;;0.67;0.63;;;;;;;10.13;100.00;94897.00;4909721;29;20224;-57
2022/09/28 04:31:13;;;;;;;0.90;0.90;;;;;;;10.14;100.00;94889.91;4909608;29;20556;-56
2022/09/28 04:33:40;;;;;;;1.60;1.20;;;;;;;10.16;100.00;94885.31;4908691;29;20311;-58
2022/09/28 04:36:08;;;;;;;1.90;0.93;;;;;;;10.14;100.00;94893.41;4909672;29;20295;-57
2022/09/28 04:38:36;;;;;;;1.33;0.80;;;;;;;10.16;100.00;94894.06;4910534;29;20226;-58
2022/09/28 04:41:03;;;;;;;2.07;0.97;;;;;;;10.17;100.00;94889.56;4910237;29;20302;-57
2022/09/28 04:43:29;;;;;;;1.40;0.90;;;;;;;10.18;100.00;94878.00;4909542;29;20597;-57
2022/09/28 04:45:59;;;;;;;3.40;1.00;;;;;;;10.22;100.00;94879.28;4908828;29;20308;-57
2022/09/28 04:48:25;;;;;;;0.70;0.67;;;;;;;10.24;100.00;94875.44;4909100;29;20208;-58
2022/09/28 04:50:55;;;;;;;1.53;1.30;;;;;;;10.19;100.00;94874.38;4909069;29;20652;-57
2022/09/28 04:53:22;;;;;;;2.27;0.70;;;;;;;10.20;100.00;94876.81;4908786;29;20210;-57
2022/09/28 04:56:08;;;;;;;2.83;0.83;;;;;;;10.23;100.00;94873.00;4909865;29;20290;-58
2022/09/28 04:58:35;;;;;;;1.67;1.20;;;;;;;10.19;100.00;94856.72;4914398;29;20237;-57
2022/09/28 05:01:04;;;;;;;1.70;1.60;;;;;;;10.15;100.00;94859.88;4915006;29;20290;-63
2022/09/28 05:03:31;;;;;;;3.33;0.93;;;;;;;10.20;100.00;94860.16;4914333;29;20204;-58
2022/09/28 05:05:58;;;;;;;11.63;2.77;;;;;;;10.47;100.00;94847.09;4924484;29;20209;-44
2022/09/28 05:08:25;;;;;;;37.63;8.33;;;;;;;13.62;100.00;94853.34;4925640;29;20215;-45
2022/09/28 05:10:57;;;;;;;38.90;9.43;;;;;;;15.43;100.00;94853.09;4924659;29;20300;-41
2022/09/28 05:13:25;;;;;;;32.15;8.23;;;;;;;16.50;100.00;94839.38;4910131;29;20209;-43
2022/09/28 05:15:53;;;;;;;29.17;7.43;;;;;;;17.22;100.00;94837.63;4908288;29;20212;-43
2022/09/28 05:18:20;;;;;;;13.45;3.13;;;;;;;17.77;100.00;94830.22;4907026;29;20302;-42
2022/09/28 05:20:46;;;;;;;15.88;4.38;;;;;;;18.27;100.00;94835.91;4907437;29;20214;-42
2022/09/28 05:23:14;;;;;;;11.15;4.35;;;;;;;18.50;100.00;94824.34;4906912;29;20214;-43
2022/09/28 05:25:41;;;;;;;6.95;3.40;;;;;;;18.73;100.00;94825.16;4908208;29;20207;-44
2022/09/28 05:28:08;;;;;;;6.00;2.47;;;;;;;18.99;99.17;94822.97;4907515;29;20255;-45
2022/09/28 05:30:36;;;;;;;8.25;2.50;;;;;;;19.18;93.03;94819.03;4908605;29;20290;-45
2022/09/28 05:33:03;;;;;;;4.30;1.90;;;;;;;19.35;87.59;94811.81;4907599;29;20299;-48
2022/09/28 05:35:30;;;;;;;0.30;0.30;;;;;;;16.40;74.68;94815.06;4907026;29;20247;-58
2022/09/28 05:37:57;;;;;;;0.60;0.60;;;;;;;14.86;83.17;94835.44;4907488;29;20611;-58
2022/09/28 05:40:23;;;;;;;0.75;0.55;;;;;;;14.16;89.07;94841.63;4908085;29;20211;-59
2022/09/28 05:42:50;;;;;;;0.47;0.47;;;;;;;13.57;89.33;94839.88;4910110;29;20292;-59
2022/09/28 05:45:17;;;;;;;1.92;0.50;;;;;;;12.87;94.83;94837.75;4909753;29;20228;-60
2022/09/28 05:47:46;;;;;;;0.47;0.40;;;;;;;12.41;99.35;94835.78;4909950;29;20243;-59
2022/09/28 05:50:14;;;;;;;1.73;0.65;;;;;;;12.07;100.00;94843.78;4908652;29;20216;-60
2022/09/28 05:52:42;;;;;;;0.70;0.30;;;;;;;11.83;100.00;94850.34;4915884;29;20216;-59
2022/09/28 05:55:09;;;;;;;0.57;0.50;;;;;;;11.59;100.00;94853.41;4910253;29;20700;-59
2022/09/28 05:57:36;;;;;;;0.60;0.50;;;;;;;11.40;100.00;94852.28;4907255;29;20225;-59
2022/09/28 06:00:04;;;;;;;0.97;0.50;;;;;;;11.21;100.00;94844.16;4907199;29;20655;-59
2022/09/28 06:02:31;;;;;;;1.33;0.70;;;;;;;11.16;100.00;94830.69;4906845;29;20208;-57
2022/09/28 06:04:59;;;;;;;0.60;0.60;;;;;;;11.07;100.00;94837.09;4906852;29;20232;-58
2022/09/28 06:07:25;;;;;;;1.00;0.70;;;;;;;10.99;100.00;94832.75;4907571;29;20288;-59
2022/09/28 06:09:52;;;;;;;1.93;0.60;;;;;;;10.91;100.00;94846.13;4907053;29;20208;-58
2022/09/28 06:12:19;;;;;;;0.50;0.50;;;;;;;10.82;100.00;94845.44;4906767;29;20204;-59
2022/09/28 06:14:47;;;;;;;1.10;0.60;;;;;;;10.82;100.00;94845.44;4907724;29;20593;-59
2022/09/28 06:17:14;;;;;;;0.60;0.60;;;;;;;10.76;100.00;94858.59;4907152;29;20200;-59
2022/09/28 06:19:40;;;;;;;1.03;0.67;;;;;;;10.81;100.00;94856.19;4907341;29;20552;-59
2022/09/28 06:22:09;;;;;;;0.93;0.90;;;;;;;10.79;100.00;94860.84;4907359;29;20205;-59
2022/09/28 06:24:35;;;;;;;1.00;0.90;;;;;;;10.72;100.00;94862.59;4907826;29;20291;-58
2022/09/28 06:27:02;;;;;;;0.90;0.63;;;;;;;10.73;100.00;94867.72;4907151;29;20214;-59
2022/09/28 06:29:29;;;;;;;1.30;1.00;;;;;;;10.68;100.00;94864.78;4907603;29;20292;-58
2022/09/28 06:31:56;;;;;;;1.17;1.07;;;;;;;10.67;100.00;94865.78;4907345;29;20299;-57
2022/09/28 06:34:23;;;;;;;0.90;0.80;;;;;;;10.65;100.00;94864.34;4906951;29;20227;-57
2022/09/28 06:36:50;;;;;;;1.67;0.67;;;;;;;10.70;100.00;94872.56;4906823;29;20269;-58
2022/09/28 06:39:21;;;;;;;1.00;0.97;;;;;;;10.69;100.00;94863.81;4907179;29;20306;-58
2022/09/28 06:41:48;;;;;;;0.70;0.70;;;;;;;10.70;100.00;94873.34;4906834;29;20826;-58
2022/09/28 06:44:14;;;;;;;2.47;0.87;;;;;;;10.65;100.00;94873.09;4906327;29;20318;-59
2022/09/28 06:46:41;;;;;;;0.80;0.80;;;;;;;10.68;100.00;94875.38;4906263;29;20230;-59
2022/09/28 06:49:08;;;;;;;0.83;0.83;;;;;;;10.68;100.00;94885.94;4907323;29;20688;-59
2022/09/28 06:51:35;;;;;;;2.37;0.80;;;;;;;10.67;100.00;94884.28;4906633;29;20216;-58
2022/09/28 06:54:01;;;;;;;0.80;0.80;;;;;;;10.61;100.00;94898.28;4906567;29;20223;-58
2022/09/28 06:56:29;;;;;;;0.50;0.50;;;;;;;10.65;100.00;94891.59;4906800;29;20319;-59
2022/09/28 06:58:56;;;;;;;0.90;0.90;;;;;;;10.72;100.00;94894.31;4906156;29;20214;-58
2022/09/28 07:01:22;;;;;;;0.90;0.90;;;;;;;10.69;100.00;94900.81;4906512;29;20295;-58
2022/09/28 07:03:50;;;;;;;2.00;0.90;;;;;;;10.70;100.00;94905.06;4906449;29;20228;-59
2022/09/28 07:06:19;;;;;;;0.97;0.90;;;;;;;10.70;100.00;94905.06;4906205;29;20697;-58
2022/09/28 07:08:45;;;;;;;2.20;0.93;;;;;;;10.73;100.00;94903.91;4905620;29;20642;-58
2022/09/28 07:11:12;;;;;;;0.73;0.73;;;;;;;10.69;100.00;94905.28;4905941;29;20668;-58
2022/09/28 07:13:40;;;;;;;0.70;0.70;;;;;;;10.73;100.00;94911.84;4906499;29;20203;-58
2022/09/28 07:16:07;;;;;;;0.97;0.97;;;;;;;10.73;100.00;94912.66;4906724;29;20540;-58
2022/09/28 07:18:33;;;;;;;1.27;1.17;;;;;;;10.71;100.00;94919.94;4906272;29;20215;-58
2022/09/28 07:21:01;;;;;;;0.80;0.80;;;;;;;10.73;100.00;94923.22;4905960;29;20222;-58
2022/09/28 07:23:29;;;;;;;0.77;0.77;;;;;;;10.76;100.00;94919.38;4905827;29;20208;-58
2022/09/28 07:25:56;;;;;;;1.50;1.10;;;;;;;10.75;100.00;94933.59;4907100;29;20208;-58
2022/09/28 07:28:23;;;;;;;1.00;1.00;;;;;;;10.73;100.00;94933.81;4906133;29;20252;-58
2022/09/28 07:30:51;;;;;;;0.93;0.93;;;;;;;10.74;100.00;94940.72;4905857;29;20649;-58
2022/09/28 07:33:18;;;;;;;1.03;0.90;;;;;;;10.73;100.00;94947.03;4905612;29;20649;-58
2022/09/28 07:35:51;;;;;;;0.90;0.90;;;;;;;10.73;100.00;94946.19;4912067;29;20596;-59
2022/09/28 07:38:17;;;;;;;1.73;0.90;;;;;;;10.74;100.00;94938.06;4909099;29;20525;-58
2022/09/28 07:43:28;;;;;;;1.43;1.00;;;;;;;10.78;100.00;94943.81;4905704;29;20340;-58
2022/09/28 07:45:57;;;;;;;0.80;0.80;;;;;;;10.79;100.00;94942.81;4905011;29;20236;-58
2022/09/28 07:48:24;;;;;;;0.63;0.60;;;;;;;10.80;100.00;94941.81;4908734;29;20732;-59
2022/09/28 07:50:52;;;;;;;0.70;0.70;;;;;;;10.80;100.00;94940.00;4908976;29;20272;-58
2022/09/28 07:53:19;;;;;;;1.47;0.80;;;;;;;10.83;100.00;94938.78;4908911;29;20333;-58
2022/09/28 07:55:51;;;;;;;1.03;0.73;;;;;;;10.87;100.00;94946.16;4908718;29;21371;-59
2022/09/28 07:58:18;;;;;;;1.50;0.70;;;;;;;10.89;100.00;94944.16;4909925;29;20292;-58
2022/09/28 08:00:46;;;;;;;0.40;0.40;;;;;;;10.92;100.00;94957.00;4909950;29;20523;-58
2022/09/28 08:03:15;;;;;;;0.67;0.50;;;;;;;10.94;100.00;94957.63;4909290;29;20530;-58
2022/09/28 08:05:42;;;;;;;8.70;1.80;;;;;;;10.98;100.00;94963.38;4910333;29;20200;-58
2022/09/28 08:08:08;;;;;;;1.40;1.30;;;;;;;10.99;100.00;94965.81;4909585;29;20216;-58
2022/09/28 08:10:36;;;;;;;1.00;1.00;;;;;;;11.04;100.00;94975.03;4909272;29;20235;-58
2022/09/28 08:13:02;;;;;;;0.80;0.80;;;;;;;11.02;100.00;94975.19;4909142;29;20517;-58
2022/09/28 08:15:35;;;;;;;1.30;1.00;;;;;;;11.05;100.00;94981.97;4909900;29;20292;-57
2022/09/28 08:18:02;;;;;;;1.93;1.47;;;;;;;11.05;100.00;94988.06;4909692;29;20214;-58
2022/09/28 08:23:16;;;;;;;0.93;0.93;;;;;;;11.07;100.00;94979.94;4909801;29;20203;-58
2022/09/28 08:25:47;;;;;;;1.23;0.90;;;;;;;11.07;100.00;94978.13;4909757;29;20645;-58
2022/09/28 08:28:14;;;;;;;0.77;0.77;;;;;;;11.10;100.00;94976.91;4909564;29;20207;-58
2022/09/28 08:30:41;;;;;;;0.73;0.73;;;;;;;11.12;100.00;94972.28;4909027;29;20288;-59
2022/09/28 08:33:07;;;;;;;0.80;0.80;;;;;;;11.17;100.00;94975.16;4909983;29;20244;-58
2022/09/28 08:35:36;;;;;;;1.17;0.60;;;;;;;11.21;100.00;94971.13;4909684;29;20225;-58
2022/09/28 08:38:03;;;;;;;0.63;0.63;;;;;;;11.27;100.00;94967.72;4927870;29;20204;-58
2022/09/28 08:40:44;;;;;;;0.67;0.60;;;;;;;11.30;100.00;94977.97;4930447;29;20225;-58
2022/09/28 08:43:21;;;;;;;0.97;0.93;;;;;;;11.33;100.00;94982.88;4933776;29;20204;-58
2022/09/28 08:45:49;;;;;;;5.57;5.07;;;;;;;11.36;100.00;94974.56;4937801;29;20223;-58
2022/09/28 08:51:09;;;;;;;1.20;1.10;;;;;;;11.43;100.00;94973.63;4931692;29;20207;-58
2022/09/28 08:53:40;;;;;;;1.47;1.00;;;;;;;11.45;100.00;94976.88;4939938;29;20259;-58
2022/09/28 08:56:11;;;;;;;2.80;1.20;;;;;;;11.52;100.00;94998.13;4930100;29;20228;-58
2022/09/28 08:58:41;;;;;;;3.57;1.40;;;;;;;11.49;100.00;94988.75;4906752;29;20203;-57
2022/09/28 09:01:14;;;;;;;1.33;1.20;;;;;;;11.49;100.00;94998.50;4907312;29;20208;-59
2022/09/28 09:03:43;;;;;;;1.97;1.60;;;;;;;11.44;100.00;94998.28;4907536;29;20215;-58
2022/09/28 09:06:20;;;;;;;1.73;1.23;;;;;;;11.48;100.00;95004.78;4908169;29;20208;-58
2022/09/28 09:08:56;;;;;;;1.63;1.40;;;;;;;11.48;100.00;95013.56;4907165;29;20318;-58
2022/09/28 09:11:31;;;;;;;2.63;1.67;;;;;;;11.50;100.00;95005.44;4910216;29;20208;-57
2022/09/28 09:14:29;;;;;;;1.80;1.70;;;;;;;11.54;100.00;95006.72;4910073;29;20310;-58
2022/09/28 09:17:01;;;;;;;1.90;1.80;;;;;;;11.60;100.00;95013.88;4912130;29;20593;-59
2022/09/28 09:19:35;;;;;;;3.97;1.90;;;;;;;11.64;100.00;95012.50;4913551;29;20208;-59
2022/09/28 09:22:08;;;;;;;2.00;1.40;;;;;;;11.65;100.00;95022.09;4912430;29;20200;-59
2022/09/28 09:24:42;;;;;;;1.23;1.23;;;;;;;11.69;100.00;95015.38;4910644;29;20204;-58
2022/09/28 09:27:15;;;;;;;2.03;1.90;;;;;;;11.71;100.00;95026.66;4908137;29;20334;-59
2022/09/28 09:29:56;;;;;;;1.60;1.50;;;;;;;11.76;100.00;95018.94;4908116;29;20197;-59
2022/09/28 09:32:36;;;;;;;1.67;1.57;;;;;;;11.82;100.00;95022.69;4907807;29;20204;-58
2022/09/28 09:35:17;;;;;;;2.63;1.43;;;;;;;11.92;100.00;95018.72;4908591;29;20231;-58
2022/09/28 09:37:59;;;;;;;1.93;1.30;;;;;;;12.00;100.00;95017.75;4908110;29;20312;-58
2022/09/28 09:40:39;;;;;;;1.33;1.23;;;;;;;12.05;100.00;95009.22;4908016;29;20212;-59
2022/09/28 09:43:37;;;;;;;1.10;1.00;;;;;;;12.11;100.00;95008.47;4907676;29;20192;-59
2022/09/28 09:46:12;;;;;;;1.60;1.07;;;;;;;12.16;100.00;95003.41;4902029;29;20228;-58
2022/09/28 09:48:41;;;;;;;0.83;0.83;;;;;;;12.22;100.00;95015.91;4907326;29;20208;-58
2022/09/28 09:51:16;;;;;;;0.90;0.90;;;;;;;12.28;100.00;95009.81;4906383;29;20483;-58
2022/09/28 09:53:49;;;;;;;1.63;0.80;;;;;;;12.23;100.00;95009.56;4907277;29;20356;-59
2022/09/28 09:56:19;;;;;;;1.93;1.83;;;;;;;12.29;100.00;95012.25;4906839;29;20226;-59
2022/09/28 09:58:49;;;;;;;1.30;1.17;;;;;;;12.31;100.00;95012.06;4906507;29;20214;-59
2022/09/28 10:01:17;;;;;;;1.10;1.00;;;;;;;12.31;100.00;95009.44;4907843;29;20235;-59
2022/09/28 10:03:47;;;;;;;1.20;1.20;;;;;;;12.34;100.00;95006.38;4929760;29;20201;-59
2022/09/28 10:06:18;;;;;;;0.80;0.80;;;;;;;12.37;100.00;95006.81;4920748;29;20203;-58
2022/09/28 10:08:49;;;;;;;0.97;0.77;;;;;;;12.33;100.00;95005.56;4919446;29;20256;-60
2022/09/28 10:11:18;;;;;;;0.90;0.90;;;;;;;12.38;100.00;95012.94;4918349;29;20211;-59
2022/09/28 10:13:48;;;;;;;1.10;1.00;;;;;;;12.36;100.00;95009.69;4906442;29;20287;-59
2022/09/28 10:16:14;;;;;;;0.90;0.60;;;;;;;12.30;100.00;95007.78;4906564;29;20229;-58
2022/09/28 10:18:41;;;;;;;0.70;0.70;;;;;;;12.31;100.00;95014.72;4907213;29;20342;-58
2022/09/28 10:21:12;;;;;;;0.70;0.57;;;;;;;12.34;100.00;95011.69;4906634;29;20222;-59
2022/09/28 10:23:40;;;;;;;1.10;0.50;;;;;;;12.32;100.00;95009.25;4907246;29;20200;-58
2022/09/28 10:26:13;;;;;;;1.70;0.57;;;;;;;12.31;100.00;95012.91;4907488;29;20264;-59
2022/09/28 10:28:43;;;;;;;0.60;0.60;;;;;;;12.35;100.00;95008.03;4906934;29;20215;-57
2022/09/28 10:31:39;;;;;;;0.80;0.80;;;;;;;12.31;100.00;95009.44;4908346;29;20656;-58
2022/09/28 10:34:06;;;;;;;1.50;0.70;;;;;;;12.31;100.00;95017.38;4907019;29;20303;-59
2022/09/28 10:36:37;;;;;;;1.37;0.80;;;;;;;12.30;100.00;95010.44;4906583;29;20224;-59
2022/09/28 10:39:04;;;;;;;0.50;0.50;;;;;;;12.30;100.00;95015.72;4907151;29;20280;-58
2022/09/28 10:41:32;;;;;;;0.87;0.70;;;;;;;12.23;100.00;95022.81;4907250;29;20228;-59
2022/09/28 10:44:09;;;;;;;0.87;0.70;;;;;;;12.20;100.00;95025.84;4907460;29;20220;-59
2022/09/28 10:46:38;;;;;;;2.90;1.40;;;;;;;12.18;100.00;95018.13;4906500;29;20196;-58
2022/09/28 10:49:08;;;;;;;1.63;1.53;;;;;;;12.20;100.00;95023.19;4905710;29;20210;-59
2022/09/28 10:51:42;;;;;;;2.13;1.50;;;;;;;12.21;100.00;95022.19;4906670;29;20278;-59
2022/09/28 10:54:15;;;;;;;1.50;1.10;;;;;;;12.10;100.00;95020.06;4905557;29;20215;-59
2022/09/28 10:56:43;;;;;;;1.60;1.50;;;;;;;12.18;100.00;95017.28;4905834;29;20223;-59
2022/09/28 10:59:37;;;;;;;1.47;0.80;;;;;;;12.22;100.00;95023.84;4905519;29;20219;-59
2022/09/28 11:02:20;;;;;;;0.87;0.87;;;;;;;12.16;100.00;95024.59;4905362;29;20296;-59
2022/09/28 11:04:52;;;;;;;0.70;0.70;;;;;;;12.15;100.00;95017.69;4905219;29;20200;-59
2022/09/28 11:07:20;;;;;;;2.70;0.90;;;;;;;12.09;100.00;95007.81;4905631;29;20235;-59
2022/09/28 11:09:48;;;;;;;2.53;1.13;;;;;;;12.11;100.00;95022.53;4905347;29;20287;-59
2022/09/28 11:12:19;;;;;;;0.70;0.70;;;;;;;12.13;100.00;95019.69;4906226;29;20195;-58
2022/09/28 11:14:47;;;;;;;1.13;0.77;;;;;;;12.09;100.00;95019.25;4908161;29;20271;-59
2022/09/28 11:17:24;;;;;;;1.10;0.80;;;;;;;12.12;100.00;95028.63;4909176;29;20255;-59
2022/09/28 11:19:51;;;;;;;0.90;0.87;;;;;;;12.12;100.00;95020.69;4908699;29;20283;-59
2022/09/28 11:22:27;;;;;;;2.23;0.67;;;;;;;12.12;100.00;95018.03;4906846;29;20220;-59
2022/09/28 11:25:13;;;;;;;1.30;1.20;;;;;;;12.12;100.00;95018.03;4907175;29;20596;-59
2022/09/28 11:27:41;;;;;;;1.53;0.80;;;;;;;12.06;100.00;95019.63;4905871;29;20268;-58
2022/09/28 11:30:22;;;;;;;2.50;1.00;;;;;;;12.05;100.00;95025.94;4905519;29;20196;-59
2022/09/28 11:32:48;;;;;;;1.03;0.60;;;;;;;12.06;100.00;95029.41;4905845;29;20303;-58
2022/09/28 11:35:19;;;;;;;2.03;0.80;;;;;;;12.08;100.00;95030.06;4905304;29;20682;-59
2022/09/28 11:37:55;;;;;;;2.53;0.60;;;;;;;12.00;100.00;95027.53;4905345;29;20208;-59
2022/09/28 11:40:30;;;;;;;1.10;0.50;;;;;;;12.10;100.00;95023.53;4905184;29;20276;-59
2022/09/28 11:43:07;;;;;;;1.63;0.87;;;;;;;12.07;100.00;95023.09;4905823;29;20296;-59
2022/09/28 11:45:45;;;;;;;0.80;0.80;;;;;;;12.17;100.00;95020.94;4905563;29;20233;-58
2022/09/28 11:48:14;;;;;;;0.70;0.60;;;;;;;12.19;100.00;95022.38;4906743;29;20240;-59
2022/09/28 11:50:46;;;;;;;1.13;0.60;;;;;;;12.26;100.00;95025.91;4906673;29;20271;-59